sensor_id;sensor_type;location;lat;lon;timestamp;pressure;altitude;pressure_sealevel;temperature;humidity
3102;BME280;1561;42.666;23.392;2022-07-22T00:01:32;95203.78;;;21.14;100.00
3102;BME280;1561;42.666;23.392;2022-07-22T00:04:01;95251.91;;;21.37;100.00
3102;BME280;1561;42.666;23.392;2022-07-22T00:06:29;95248.59;;;21.43;100.00
3102;BME280;1561;42.666;23.392;2022-07-22T00:08:57;95255.44;;;21.51;100.00
3102;BME280;1561;42.666;23.392;2022-07-22T00:11:25;95259.16;;;21.42;100.00
3102;BME280;1561;42.666;23.392;2022-07-22T00:13:54;95251.22;;;21.22;100.00
3102;BME280;1561;42.666;23.392;2022-07-22T00:16:26;95265.25;;;21.28;100.00
3102;BME280;1561;42.666;23.392;2022-07-22T00:18:55;95263.72;;;21.12;100.00
3102;BME280;1561;42.666;23.392;2022-07-22T00:21:24;95264.97;;;21.16;100.00
3102;BME280;1561;42.666;23.392;2022-07-22T00:23:52;95270.22;;;21.02;100.00
3102;BME280;1561;42.666;23.392;2022-07-22T00:26:26;95277.03;;;20.88;100.00
3102;BME280;1561;42.666;23.392;2022-07-22T00:28:54;95267.47;;;20.53;100.00
3102;BME280;1561;42.666;23.392;2022-07-22T00:31:21;95261.69;;;20.37;100.00
3102;BME280;1561;42.666;23.392;2022-07-22T00:33:53;95207.00;;;19.88;100.00
3102;BME280;1561;42.666;23.392;2022-07-22T00:36:22;95272.63;;;20.32;100.00
3102;BME280;1561;42.666;23.392;2022-07-22T00:38:53;95255.34;;;20.25;100.00
3102;BME280;1561;42.666;23.392;2022-07-22T00:41:21;95267.69;;;20.37;100.00
3102;BME280;1561;42.666;23.392;2022-07-22T00:43:52;95266.53;;;20.25;100.00
3102;BME280;1561;42.666;23.392;2022-07-22T00:46:25;95271.97;;;20.45;100.00
3102;BME280;1561;42.666;23.392;2022-07-22T00:48:58;95275.09;;;20.40;100.00
3102;BME280;1561;42.666;23.392;2022-07-22T00:51:27;95273.56;;;20.46;100.00
3102;BME280;1561;42.666;23.392;2022-07-22T00:53:56;95269.56;;;20.43;100.00
3102;BME280;1561;42.666;23.392;2022-07-22T00:56:24;95256.16;;;20.40;100.00
3102;BME280;1561;42.666;23.392;2022-07-22T00:58:54;95259.00;;;20.45;100.00
3102;BME280;1561;42.666;23.392;2022-07-22T01:01:23;95265.69;;;20.54;100.00
3102;BME280;1561;42.666;23.392;2022-07-22T01:03:52;95220.19;;;20.22;100.00
3102;BME280;1561;42.666;23.392;2022-07-22T01:06:30;95258.47;;;20.49;100.00
3102;BME280;1561;42.666;23.392;2022-07-22T01:09:00;95214.84;;;20.24;100.00
3102;BME280;1561;42.666;23.392;2022-07-22T01:11:29;95264.53;;;20.56;100.00
3102;BME280;1561;42.666;23.392;2022-07-22T01:13:57;95264.25;;;20.51;100.00
3102;BME280;1561;42.666;23.392;2022-07-22T01:16:25;95254.63;;;20.45;100.00
3102;BME280;1561;42.666;23.392;2022-07-22T01:18:53;95252.22;;;20.44;100.00
3102;BME280;1561;42.666;23.392;2022-07-22T01:21:24;95261.66;;;20.51;100.00
3102;BME280;1561;42.666;23.392;2022-07-22T01:23:52;95259.97;;;20.58;100.00
3102;BME280;1561;42.666;23.392;2022-07-22T01:26:24;95250.69;;;20.49;100.00
3102;BME280;1561;42.666;23.392;2022-07-22T01:28:51;95257.47;;;20.50;100.00
3102;BME280;1561;42.666;23.392;2022-07-22T01:31:20;95262.47;;;20.52;100.00
3102;BME280;1561;42.666;23.392;2022-07-22T01:33:46;95257.28;;;20.52;100.00
3102;BME280;1561;42.666;23.392;2022-07-22T01:36:18;95262.09;;;20.55;100.00
3102;BME280;1561;42.666;23.392;2022-07-22T01:38:54;95256.41;;;20.45;100.00
3102;BME280;1561;42.666;23.392;2022-07-22T01:41:22;95190.25;;;20.05;100.00
3102;BME280;1561;42.666;23.392;2022-07-22T01:43:50;95264.53;;;20.42;100.00
3102;BME280;1561;42.666;23.392;2022-07-22T01:46:20;95263.75;;;20.41;100.00
3102;BME280;1561;42.666;23.392;2022-07-22T01:48:49;95263.56;;;20.43;100.00
3102;BME280;1561;42.666;23.392;2022-07-22T01:51:17;95267.19;;;20.27;100.00
3102;BME280;1561;42.666;23.392;2022-07-22T01:54:01;95273.00;;;20.15;100.00
3102;BME280;1561;42.666;23.392;2022-07-22T01:56:34;95266.03;;;20.30;100.00
3102;BME280;1561;42.666;23.392;2022-07-22T01:59:03;95268.25;;;20.18;100.00
3102;BME280;1561;42.666;23.392;2022-07-22T02:01:30;95264.44;;;20.14;100.00
3102;BME280;1561;42.666;23.392;2022-07-22T02:03:59;95270.41;;;20.15;100.00
3102;BME280;1561;42.666;23.392;2022-07-22T02:06:26;95264.94;;;20.10;100.00
3102;BME280;1561;42.666;23.392;2022-07-22T02:08:53;95267.88;;;20.07;100.00
3102;BME280;1561;42.666;23.392;2022-07-22T02:11:29;95274.31;;;19.82;100.00
3102;BME280;1561;42.666;23.392;2022-07-22T02:13:59;95273.25;;;19.76;100.00
3102;BME280;1561;42.666;23.392;2022-07-22T02:16:27;95277.13;;;19.58;100.00
3102;BME280;1561;42.666;23.392;2022-07-22T02:18:55;95288.84;;;19.54;100.00
3102;BME280;1561;42.666;23.392;2022-07-22T02:21:23;95285.63;;;19.52;100.00
3102;BME280;1561;42.666;23.392;2022-07-22T02:23:52;95284.72;;;19.45;100.00
3102;BME280;1561;42.666;23.392;2022-07-22T02:26:27;95282.13;;;19.45;100.00
3102;BME280;1561;42.666;23.392;2022-07-22T02:28:54;95296.63;;;19.54;100.00
3102;BME280;1561;42.666;23.392;2022-07-22T02:31:22;95285.34;;;19.47;100.00
3102;BME280;1561;42.666;23.392;2022-07-22T02:33:51;95296.09;;;19.58;100.00
3102;BME280;1561;42.666;23.392;2022-07-22T02:36:22;95291.34;;;19.62;100.00
3102;BME280;1561;42.666;23.392;2022-07-22T02:38:52;95278.38;;;19.33;100.00
3102;BME280;1561;42.666;23.392;2022-07-22T02:41:20;95269.06;;;19.24;100.00
3102;BME280;1561;42.666;23.392;2022-07-22T02:43:52;95291.44;;;19.39;100.00
3102;BME280;1561;42.666;23.392;2022-07-22T02:46:20;95285.38;;;19.24;100.00
3102;BME280;1561;42.666;23.392;2022-07-22T02:48:50;95291.38;;;19.25;100.00
3102;BME280;1561;42.666;23.392;2022-07-22T02:51:21;95285.81;;;19.28;100.00
3102;BME280;1561;42.666;23.392;2022-07-22T02:53:53;95284.91;;;19.21;100.00
3102;BME280;1561;42.666;23.392;2022-07-22T02:56:23;95264.78;;;19.08;100.00
3102;BME280;1561;42.666;23.392;2022-07-22T02:58:55;95300.53;;;19.35;100.00
3102;BME280;1561;42.666;23.392;2022-07-22T03:01:26;95289.63;;;19.17;100.00
3102;BME280;1561;42.666;23.392;2022-07-22T03:03:56;95285.72;;;19.21;100.00
3102;BME280;1561;42.666;23.392;2022-07-22T03:06:34;95288.78;;;19.25;100.00
3102;BME280;1561;42.666;23.392;2022-07-22T03:09:09;95280.88;;;19.18;100.00
3102;BME280;1561;42.666;23.392;2022-07-22T03:11:40;95290.25;;;19.19;100.00
3102;BME280;1561;42.666;23.392;2022-07-22T03:14:11;95283.59;;;19.25;100.00
3102;BME280;1561;42.666;23.392;2022-07-22T03:16:41;95268.84;;;19.25;100.00
3102;BME280;1561;42.666;23.392;2022-07-22T03:19:09;95282.94;;;19.45;100.00
3102;BME280;1561;42.666;23.392;2022-07-22T03:21:36;95282.66;;;19.40;100.00
3102;BME280;1561;42.666;23.392;2022-07-22T03:24:04;95280.84;;;19.26;100.00
3102;BME280;1561;42.666;23.392;2022-07-22T03:26:33;95216.84;;;18.90;100.00
3102;BME280;1561;42.666;23.392;2022-07-22T03:29:03;95280.13;;;19.32;100.00
3102;BME280;1561;42.666;23.392;2022-07-22T03:31:35;95280.38;;;19.60;100.00
3102;BME280;1561;42.666;23.392;2022-07-22T03:34:04;95292.59;;;19.51;100.00
3102;BME280;1561;42.666;23.392;2022-07-22T03:36:31;95287.47;;;19.80;100.00
3102;BME280;1561;42.666;23.392;2022-07-22T03:39:11;95298.03;;;20.37;100.00
3102;BME280;1561;42.666;23.392;2022-07-22T03:41:40;95287.22;;;20.69;100.00
3102;BME280;1561;42.666;23.392;2022-07-22T03:44:07;95291.38;;;21.20;100.00
3102;BME280;1561;42.666;23.392;2022-07-22T03:46:38;95291.31;;;21.13;100.00
3102;BME280;1561;42.666;23.392;2022-07-22T03:49:08;95294.03;;;21.26;100.00
3102;BME280;1561;42.666;23.392;2022-07-22T03:51:37;95297.56;;;21.67;100.00
3102;BME280;1561;42.666;23.392;2022-07-22T03:54:04;95295.22;;;22.40;100.00
3102;BME280;1561;42.666;23.392;2022-07-22T03:56:32;95285.28;;;22.50;100.00
3102;BME280;1561;42.666;23.392;2022-07-22T03:59:00;95297.88;;;23.13;95.96
3102;BME280;1561;42.666;23.392;2022-07-22T04:01:27;95308.13;;;22.48;100.00
3102;BME280;1561;42.666;23.392;2022-07-22T04:03:59;95306.91;;;23.17;94.74
3102;BME280;1561;42.666;23.392;2022-07-22T04:06:26;95312.81;;;23.33;92.76
3102;BME280;1561;42.666;23.392;2022-07-22T04:08:56;95298.75;;;24.12;85.64
3102;BME280;1561;42.666;23.392;2022-07-22T04:11:25;95307.06;;;24.53;81.33
3102;BME280;1561;42.666;23.392;2022-07-22T04:13:53;95310.88;;;24.57;80.44
3102;BME280;1561;42.666;23.392;2022-07-22T04:16:22;95306.31;;;24.90;79.18
3102;BME280;1561;42.666;23.392;2022-07-22T04:18:52;95303.94;;;25.19;76.64
3102;BME280;1561;42.666;23.392;2022-07-22T04:21:27;95307.06;;;25.41;77.89
3102;BME280;1561;42.666;23.392;2022-07-22T04:23:54;95307.75;;;26.03;74.39
3102;BME280;1561;42.666;23.392;2022-07-22T04:26:23;95264.13;;;24.86;80.99
3102;BME280;1561;42.666;23.392;2022-07-22T04:28:57;95311.03;;;25.99;76.46
3102;BME280;1561;42.666;23.392;2022-07-22T04:31:25;95318.94;;;26.35;73.71
3102;BME280;1561;42.666;23.392;2022-07-22T04:33:53;95316.84;;;26.79;70.15
3102;BME280;1561;42.666;23.392;2022-07-22T04:36:31;95317.03;;;26.96;69.31
3102;BME280;1561;42.666;23.392;2022-07-22T04:39:04;95313.47;;;26.54;70.95
3102;BME280;1561;42.666;23.392;2022-07-22T04:41:36;95328.19;;;26.73;70.34
3102;BME280;1561;42.666;23.392;2022-07-22T04:44:09;95280.25;;;26.12;71.27
3102;BME280;1561;42.666;23.392;2022-07-22T04:46:41;95321.88;;;26.02;74.75
3102;BME280;1561;42.666;23.392;2022-07-22T04:49:10;95322.69;;;26.21;75.90
3102;BME280;1561;42.666;23.392;2022-07-22T04:51:44;95330.00;;;27.50;66.90
3102;BME280;1561;42.666;23.392;2022-07-22T04:54:21;95330.63;;;25.90;74.26
3102;BME280;1561;42.666;23.392;2022-07-22T04:56:50;95337.28;;;25.61;77.73
3102;BME280;1561;42.666;23.392;2022-07-22T04:59:21;95325.81;;;26.29;73.09
3102;BME280;1561;42.666;23.392;2022-07-22T05:01:51;95331.09;;;25.56;77.98
3102;BME280;1561;42.666;23.392;2022-07-22T05:04:22;95279.28;;;26.31;73.14
3102;BME280;1561;42.666;23.392;2022-07-22T05:07:04;95337.81;;;26.79;71.37
3102;BME280;1561;42.666;23.392;2022-07-22T05:09:34;95325.66;;;27.96;64.82
3102;BME280;1561;42.666;23.392;2022-07-22T05:12:12;95271.06;;;28.21;60.93
3102;BME280;1561;42.666;23.392;2022-07-22T05:14:43;95319.94;;;29.52;55.54
3102;BME280;1561;42.666;23.392;2022-07-22T05:17:10;95282.16;;;29.14;54.82
3102;BME280;1561;42.666;23.392;2022-07-22T05:19:38;95332.19;;;28.40;59.67
3102;BME280;1561;42.666;23.392;2022-07-22T05:22:11;95334.69;;;28.23;61.09
3102;BME280;1561;42.666;23.392;2022-07-22T05:24:43;95330.44;;;28.80;59.29
3102;BME280;1561;42.666;23.392;2022-07-22T05:27:13;95335.75;;;27.58;64.39
3102;BME280;1561;42.666;23.392;2022-07-22T05:29:49;95334.47;;;28.25;62.43
3102;BME280;1561;42.666;23.392;2022-07-22T05:32:19;95328.84;;;28.67;59.41
3102;BME280;1561;42.666;23.392;2022-07-22T05:34:50;95333.09;;;29.36;56.97
3102;BME280;1561;42.666;23.392;2022-07-22T05:37:26;95345.31;;;29.70;56.75
3102;BME280;1561;42.666;23.392;2022-07-22T05:39:56;95327.38;;;29.11;57.54
3102;BME280;1561;42.666;23.392;2022-07-22T05:42:24;95334.31;;;30.23;53.53
3102;BME280;1561;42.666;23.392;2022-07-22T05:44:53;95338.31;;;29.76;55.44
3102;BME280;1561;42.666;23.392;2022-07-22T05:47:37;95321.94;;;29.46;55.70
3102;BME280;1561;42.666;23.392;2022-07-22T05:50:08;95341.50;;;30.27;53.07
3102;BME280;1561;42.666;23.392;2022-07-22T05:52:40;95335.22;;;30.88;49.93
3102;BME280;1561;42.666;23.392;2022-07-22T05:55:11;95347.03;;;31.07;50.48
3102;BME280;1561;42.666;23.392;2022-07-22T05:57:47;95340.72;;;30.86;50.74
3102;BME280;1561;42.666;23.392;2022-07-22T06:00:15;95332.38;;;31.95;47.33
3102;BME280;1561;42.666;23.392;2022-07-22T06:02:45;95325.56;;;31.99;46.28
3102;BME280;1561;42.666;23.392;2022-07-22T06:05:12;95343.09;;;29.51;54.64
3102;BME280;1561;42.666;23.392;2022-07-22T06:07:48;95341.66;;;30.21;52.54
3102;BME280;1561;42.666;23.392;2022-07-22T06:10:17;95339.09;;;32.08;47.80
3102;BME280;1561;42.666;23.392;2022-07-22T06:12:46;95333.06;;;32.17;45.83
3102;BME280;1561;42.666;23.392;2022-07-22T06:15:13;95333.81;;;32.44;44.40
3102;BME280;1561;42.666;23.392;2022-07-22T06:17:57;95333.88;;;31.28;47.50
3102;BME280;1561;42.666;23.392;2022-07-22T06:20:24;95335.00;;;31.37;47.47
3102;BME280;1561;42.666;23.392;2022-07-22T06:22:53;95339.94;;;30.48;50.51
3102;BME280;1561;42.666;23.392;2022-07-22T06:25:20;95338.38;;;31.33;47.97
3102;BME280;1561;42.666;23.392;2022-07-22T06:28:00;95332.81;;;32.55;44.42
3102;BME280;1561;42.666;23.392;2022-07-22T06:30:36;95324.75;;;33.58;41.56
3102;BME280;1561;42.666;23.392;2022-07-22T06:33:18;95330.59;;;32.84;42.26
3102;BME280;1561;42.666;23.392;2022-07-22T06:35:47;95291.88;;;33.44;41.06
3102;BME280;1561;42.666;23.392;2022-07-22T06:38:28;95332.44;;;33.55;41.00
3102;BME280;1561;42.666;23.392;2022-07-22T06:40:59;95282.00;;;33.30;41.79
3102;BME280;1561;42.666;23.392;2022-07-22T06:43:30;95334.41;;;33.13;42.05
3102;BME280;1561;42.666;23.392;2022-07-22T06:46:00;95332.44;;;34.20;40.28
3102;BME280;1561;42.666;23.392;2022-07-22T06:48:31;95327.44;;;34.08;38.79
3102;BME280;1561;42.666;23.392;2022-07-22T06:51:01;95333.44;;;34.74;37.51
3102;BME280;1561;42.666;23.392;2022-07-22T06:53:44;95338.53;;;32.37;40.91
3102;BME280;1561;42.666;23.392;2022-07-22T06:56:12;95336.94;;;33.69;39.21
3102;BME280;1561;42.666;23.392;2022-07-22T06:58:40;95318.94;;;33.66;39.08
3102;BME280;1561;42.666;23.392;2022-07-22T07:01:08;95330.03;;;34.53;37.10
3102;BME280;1561;42.666;23.392;2022-07-22T07:03:37;95334.47;;;31.93;41.67
3102;BME280;1561;42.666;23.392;2022-07-22T07:06:22;95338.56;;;34.30;37.58
3102;BME280;1561;42.666;23.392;2022-07-22T07:08:59;95340.78;;;33.22;39.16
3102;BME280;1561;42.666;23.392;2022-07-22T07:11:31;95325.81;;;33.67;39.44
3102;BME280;1561;42.666;23.392;2022-07-22T07:14:03;95321.00;;;34.49;37.07
3102;BME280;1561;42.666;23.392;2022-07-22T07:16:32;95331.94;;;33.83;37.23
3102;BME280;1561;42.666;23.392;2022-07-22T07:19:01;95320.03;;;35.14;35.36
3102;BME280;1561;42.666;23.392;2022-07-22T07:21:28;95317.34;;;36.58;32.34
3102;BME280;1561;42.666;23.392;2022-07-22T07:23:59;95335.97;;;36.01;31.90
3102;BME280;1561;42.666;23.392;2022-07-22T07:26:27;95334.00;;;34.56;33.84
3102;BME280;1561;42.666;23.392;2022-07-22T07:28:56;95333.13;;;34.96;33.56
3102;BME280;1561;42.666;23.392;2022-07-22T07:31:34;95326.91;;;34.41;34.39
3102;BME280;1561;42.666;23.392;2022-07-22T07:34:01;95327.53;;;35.94;32.35
3102;BME280;1561;42.666;23.392;2022-07-22T07:36:29;95319.97;;;36.87;31.14
3102;BME280;1561;42.666;23.392;2022-07-22T07:39:00;95319.88;;;37.39;30.31
3102;BME280;1561;42.666;23.392;2022-07-22T07:41:28;95318.97;;;38.63;28.52
3102;BME280;1561;42.666;23.392;2022-07-22T07:43:56;95326.34;;;36.67;30.64
3102;BME280;1561;42.666;23.392;2022-07-22T07:46:23;95332.38;;;36.21;31.25
3102;BME280;1561;42.666;23.392;2022-07-22T07:49:01;95322.78;;;36.48;31.07
3102;BME280;1561;42.666;23.392;2022-07-22T07:51:29;95336.50;;;36.03;31.84
3102;BME280;1561;42.666;23.392;2022-07-22T07:54:10;95336.69;;;36.12;30.99
3102;BME280;1561;42.666;23.392;2022-07-22T07:56:39;95327.59;;;35.84;31.61
3102;BME280;1561;42.666;23.392;2022-07-22T07:59:09;95325.56;;;36.62;30.97
3102;BME280;1561;42.666;23.392;2022-07-22T08:01:36;95327.13;;;36.91;30.71
3102;BME280;1561;42.666;23.392;2022-07-22T08:04:05;95269.72;;;36.33;31.06
3102;BME280;1561;42.666;23.392;2022-07-22T08:06:34;95327.66;;;36.65;30.89
3102;BME280;1561;42.666;23.392;2022-07-22T08:09:11;95316.63;;;37.79;29.12
3102;BME280;1561;42.666;23.392;2022-07-22T08:11:41;95324.22;;;39.08;27.65
3102;BME280;1561;42.666;23.392;2022-07-22T08:14:11;95329.59;;;38.36;28.86
3102;BME280;1561;42.666;23.392;2022-07-22T08:16:46;95320.22;;;38.06;28.65
3102;BME280;1561;42.666;23.392;2022-07-22T08:19:14;95330.53;;;36.73;30.18
3102;BME280;1561;42.666;23.392;2022-07-22T08:21:41;95325.34;;;38.03;28.07
3102;BME280;1561;42.666;23.392;2022-07-22T08:24:13;95308.28;;;38.63;26.45
3102;BME280;1561;42.666;23.392;2022-07-22T08:26:41;95326.28;;;38.84;26.38
3102;BME280;1561;42.666;23.392;2022-07-22T08:29:09;95286.84;;;39.66;24.99
3102;BME280;1561;42.666;23.392;2022-07-22T08:31:38;95336.59;;;36.27;28.68
3102;BME280;1561;42.666;23.392;2022-07-22T08:34:09;95330.84;;;38.57;26.72
3102;BME280;1561;42.666;23.392;2022-07-22T08:36:38;95329.06;;;39.06;26.61
3102;BME280;1561;42.666;23.392;2022-07-22T08:39:05;95326.72;;;38.32;27.33
3102;BME280;1561;42.666;23.392;2022-07-22T08:41:38;95321.09;;;38.02;25.89
3102;BME280;1561;42.666;23.392;2022-07-22T08:44:08;95318.84;;;39.22;25.78
3102;BME280;1561;42.666;23.392;2022-07-22T08:46:44;95324.28;;;38.49;26.62
3102;BME280;1561;42.666;23.392;2022-07-22T08:49:15;95326.78;;;39.00;25.26
3102;BME280;1561;42.666;23.392;2022-07-22T08:51:46;95319.56;;;39.00;25.65
3102;BME280;1561;42.666;23.392;2022-07-22T08:54:15;95328.53;;;38.64;25.38
3102;BME280;1561;42.666;23.392;2022-07-22T08:56:52;95321.41;;;39.40;24.79
3102;BME280;1561;42.666;23.392;2022-07-22T08:59:20;95322.34;;;39.93;24.61
3102;BME280;1561;42.666;23.392;2022-07-22T09:02:04;95321.03;;;38.79;25.73
3102;BME280;1561;42.666;23.392;2022-07-22T09:04:50;95323.50;;;40.23;24.14
3102;BME280;1561;42.666;23.392;2022-07-22T09:07:27;95325.44;;;37.61;27.11
3102;BME280;1561;42.666;23.392;2022-07-22T09:10:00;95318.47;;;38.74;25.83
3102;BME280;1561;42.666;23.392;2022-07-22T09:12:29;95324.03;;;38.91;25.80
3102;BME280;1561;42.666;23.392;2022-07-22T09:14:59;95318.50;;;39.50;25.83
3102;BME280;1561;42.666;23.392;2022-07-22T09:17:31;95331.34;;;41.11;23.83
3102;BME280;1561;42.666;23.392;2022-07-22T09:20:03;95331.84;;;39.64;24.68
3102;BME280;1561;42.666;23.392;2022-07-22T09:22:36;95327.78;;;39.17;25.62
3102;BME280;1561;42.666;23.392;2022-07-22T09:25:23;95324.28;;;39.44;24.61
3102;BME280;1561;42.666;23.392;2022-07-22T09:28:09;95332.50;;;39.47;24.96
3102;BME280;1561;42.666;23.392;2022-07-22T09:30:52;95321.16;;;40.52;24.30
3102;BME280;1561;42.666;23.392;2022-07-22T09:33:20;95315.97;;;41.59;23.56
3102;BME280;1561;42.666;23.392;2022-07-22T09:36:02;95321.38;;;39.05;25.93
3102;BME280;1561;42.666;23.392;2022-07-22T09:38:30;95325.88;;;38.50;25.20
3102;BME280;1561;42.666;23.392;2022-07-22T09:41:07;95319.38;;;39.59;23.48
3102;BME280;1561;42.666;23.392;2022-07-22T09:43:38;95327.50;;;39.54;24.95
3102;BME280;1561;42.666;23.392;2022-07-22T09:46:06;95271.81;;;37.62;25.95
3102;BME280;1561;42.666;23.392;2022-07-22T09:48:34;95312.81;;;39.65;24.72
3102;BME280;1561;42.666;23.392;2022-07-22T09:51:04;95313.13;;;39.64;24.20
3102;BME280;1561;42.666;23.392;2022-07-22T09:53:37;95315.69;;;39.69;24.94
3102;BME280;1561;42.666;23.392;2022-07-22T09:56:11;95302.84;;;38.22;26.06
3102;BME280;1561;42.666;23.392;2022-07-22T09:58:41;95318.94;;;37.85;25.99
3102;BME280;1561;42.666;23.392;2022-07-22T10:01:12;95312.41;;;37.91;26.10
3102;BME280;1561;42.666;23.392;2022-07-22T10:03:40;95319.09;;;38.26;26.01
3102;BME280;1561;42.666;23.392;2022-07-22T10:06:13;95310.66;;;38.00;26.32
3102;BME280;1561;42.666;23.392;2022-07-22T10:08:42;95307.50;;;39.03;25.14
3102;BME280;1561;42.666;23.392;2022-07-22T10:11:11;95297.59;;;38.63;25.63
3102;BME280;1561;42.666;23.392;2022-07-22T10:13:41;95309.94;;;38.59;25.65
3102;BME280;1561;42.666;23.392;2022-07-22T10:16:09;95300.91;;;38.41;26.06
3102;BME280;1561;42.666;23.392;2022-07-22T10:18:37;95290.81;;;37.37;26.64
3102;BME280;1561;42.666;23.392;2022-07-22T10:21:07;95297.97;;;37.60;26.48
3102;BME280;1561;42.666;23.392;2022-07-22T10:23:35;95293.81;;;37.86;26.84
3102;BME280;1561;42.666;23.392;2022-07-22T10:26:05;95292.34;;;38.85;25.55
3102;BME280;1561;42.666;23.392;2022-07-22T10:28:33;95294.03;;;38.08;25.93
3102;BME280;1561;42.666;23.392;2022-07-22T10:31:21;95293.25;;;38.08;26.49
3102;BME280;1561;42.666;23.392;2022-07-22T10:33:51;95292.78;;;37.69;27.17
3102;BME280;1561;42.666;23.392;2022-07-22T10:36:33;95296.88;;;37.80;26.99
3102;BME280;1561;42.666;23.392;2022-07-22T10:39:05;95294.38;;;37.33;27.35
3102;BME280;1561;42.666;23.392;2022-07-22T10:41:35;95295.75;;;37.30;27.79
3102;BME280;1561;42.666;23.392;2022-07-22T10:44:07;95266.84;;;37.37;27.37
3102;BME280;1561;42.666;23.392;2022-07-22T10:46:50;95294.50;;;37.23;27.54
3102;BME280;1561;42.666;23.392;2022-07-22T10:49:18;95294.19;;;36.59;28.20
3102;BME280;1561;42.666;23.392;2022-07-22T10:52:08;95293.66;;;37.27;27.50
3102;BME280;1561;42.666;23.392;2022-07-22T10:55:20;95288.59;;;36.60;27.79
3102;BME280;1561;42.666;23.392;2022-07-22T10:58:04;95286.25;;;37.93;27.08
3102;BME280;1561;42.666;23.392;2022-07-22T11:00:53;95290.19;;;37.03;28.14
3102;BME280;1561;42.666;23.392;2022-07-22T11:03:28;95289.09;;;36.05;29.72
3102;BME280;1561;42.666;23.392;2022-07-22T11:05:57;95296.53;;;35.80;30.15
3102;BME280;1561;42.666;23.392;2022-07-22T11:08:45;95283.81;;;36.57;28.92
3102;BME280;1561;42.666;23.392;2022-07-22T11:11:42;95283.97;;;37.50;27.93
3102;BME280;1561;42.666;23.392;2022-07-22T11:14:21;95278.78;;;37.40;27.63
3102;BME280;1561;42.666;23.392;2022-07-22T11:16:51;95278.66;;;36.42;28.20
3102;BME280;1561;42.666;23.392;2022-07-22T11:19:24;95277.53;;;35.91;29.04
3102;BME280;1561;42.666;23.392;2022-07-22T11:21:58;95278.19;;;35.78;29.04
3102;BME280;1561;42.666;23.392;2022-07-22T11:24:47;95279.47;;;34.99;30.29
3102;BME280;1561;42.666;23.392;2022-07-22T11:27:15;95291.44;;;35.45;30.10
3102;BME280;1561;42.666;23.392;2022-07-22T11:29:47;95276.28;;;35.45;29.58
3102;BME280;1561;42.666;23.392;2022-07-22T11:32:16;95280.03;;;34.91;30.71
3102;BME280;1561;42.666;23.392;2022-07-22T11:35:01;95276.66;;;35.24;30.16
3102;BME280;1561;42.666;23.392;2022-07-22T11:40:12;95270.81;;;35.22;30.44
3102;BME280;1561;42.666;23.392;2022-07-22T11:43:03;95268.94;;;35.32;30.44
3102;BME280;1561;42.666;23.392;2022-07-22T11:45:31;95270.78;;;34.73;30.89
3102;BME280;1561;42.666;23.392;2022-07-22T11:48:08;95252.91;;;34.99;29.99
3102;BME280;1561;42.666;23.392;2022-07-22T11:50:37;95270.66;;;35.47;29.56
3102;BME280;1561;42.666;23.392;2022-07-22T11:53:06;95263.19;;;35.54;29.72
3102;BME280;1561;42.666;23.392;2022-07-22T11:55:37;95261.16;;;34.87;30.46
3102;BME280;1561;42.666;23.392;2022-07-22T11:58:04;95257.22;;;34.79;30.69
3102;BME280;1561;42.666;23.392;2022-07-22T12:00:33;95258.19;;;34.30;30.83
3102;BME280;1561;42.666;23.392;2022-07-22T12:03:12;95268.81;;;34.10;31.49
3102;BME280;1561;42.666;23.392;2022-07-22T12:05:44;95261.94;;;33.94;32.36
3102;BME280;1561;42.666;23.392;2022-07-22T12:08:10;95266.41;;;34.33;31.61
3102;BME280;1561;42.666;23.392;2022-07-22T12:10:38;95253.06;;;34.53;30.75
3102;BME280;1561;42.666;23.392;2022-07-22T12:13:05;95210.25;;;34.80;30.14
3102;BME280;1561;42.666;23.392;2022-07-22T12:15:34;95266.84;;;34.60;30.69
3102;BME280;1561;42.666;23.392;2022-07-22T12:18:19;95265.59;;;34.28;31.23
3102;BME280;1561;42.666;23.392;2022-07-22T12:20:49;95211.56;;;33.89;30.57
3102;BME280;1561;42.666;23.392;2022-07-22T12:23:19;95236.72;;;34.16;30.26
3102;BME280;1561;42.666;23.392;2022-07-22T12:25:54;95241.50;;;33.99;31.04
3102;BME280;1561;42.666;23.392;2022-07-22T12:28:25;95246.25;;;34.32;31.07
3102;BME280;1561;42.666;23.392;2022-07-22T12:30:55;95249.25;;;34.90;30.13
3102;BME280;1561;42.666;23.392;2022-07-22T12:33:23;95244.13;;;34.19;30.81
3102;BME280;1561;42.666;23.392;2022-07-22T12:36:04;95231.84;;;34.48;30.29
3102;BME280;1561;42.666;23.392;2022-07-22T12:38:33;95242.03;;;33.56;30.24
3102;BME280;1561;42.666;23.392;2022-07-22T12:41:24;95233.25;;;34.26;29.86
3102;BME280;1561;42.666;23.392;2022-07-22T12:43:55;95236.94;;;34.20;28.64
3102;BME280;1561;42.666;23.392;2022-07-22T12:46:36;95240.47;;;33.75;29.88
3102;BME280;1561;42.666;23.392;2022-07-22T12:49:28;95253.47;;;33.87;29.65
3102;BME280;1561;42.666;23.392;2022-07-22T12:52:10;95243.91;;;33.66;29.30
3102;BME280;1561;42.666;23.392;2022-07-22T12:54:41;95249.75;;;33.78;28.90
3102;BME280;1561;42.666;23.392;2022-07-22T12:57:27;95240.19;;;33.67;29.49
3102;BME280;1561;42.666;23.392;2022-07-22T13:00:22;95247.63;;;33.70;29.68
3102;BME280;1561;42.666;23.392;2022-07-22T13:03:15;95240.97;;;33.77;28.88
3102;BME280;1561;42.666;23.392;2022-07-22T13:05:51;95237.03;;;33.55;28.78
3102;BME280;1561;42.666;23.392;2022-07-22T13:08:25;95232.22;;;34.02;28.75
3102;BME280;1561;42.666;23.392;2022-07-22T13:10:53;95239.66;;;33.50;29.06
3102;BME280;1561;42.666;23.392;2022-07-22T13:13:21;95243.91;;;33.71;28.95
3102;BME280;1561;42.666;23.392;2022-07-22T13:15:49;95237.81;;;33.55;29.00
3102;BME280;1561;42.666;23.392;2022-07-22T13:18:19;95218.22;;;33.41;28.76
3102;BME280;1561;42.666;23.392;2022-07-22T13:20:46;95250.53;;;33.58;28.45
3102;BME280;1561;42.666;23.392;2022-07-22T13:23:16;95225.56;;;33.24;28.39
3102;BME280;1561;42.666;23.392;2022-07-22T13:25:54;95258.50;;;33.53;27.78
3102;BME280;1561;42.666;23.392;2022-07-22T13:28:28;95254.25;;;33.57;27.15
3102;BME280;1561;42.666;23.392;2022-07-22T13:31:18;95237.50;;;33.17;27.17
3102;BME280;1561;42.666;23.392;2022-07-22T13:33:53;95218.97;;;33.22;27.60
3102;BME280;1561;42.666;23.392;2022-07-22T13:36:41;95259.28;;;33.49;27.46